KOLF

L M Clayton Airport

Wolf Point, Montana, USA
METAR KOLF 212253Z AUTO 11005KT 10SM SCT100 29/12 A2988 RMK AO2 SLP112 T02890122 TSNO
Observed Flight Rules
Jun-21 @ 22:53 UTC (60 minutes ago) Visual Flight Rules
Wind Visibility Clouds
110° at 5 knots 10 miles
  • Scattered at 10,000' AGL
Temperatures Readings
Current 29°C / 84°F
Dewpoint 12°C / 54°F
Humidity 35%
Altimeter 29.88" Hg
Pressure 1011.2 hPa
Elevation 604
METAR KOLF 212253Z AUTO 11005KT 10SM SCT100 29/12 A2988 RMK AO2 SLP112 T02890122 TSNO
Observed Flight Rules
Jun-21 @ 22:53 UTC
(60 minutes ago)
VFR
Wind Visibility
110° at 5 knots 10 miles
Clouds
  • Scattered at 10,000' AGL
Temperature Dewpoint
29°C / 84°F 12°C / 54°F
Humidity Altimeter Pressure
35% 29.88" Hg 1011.2 hPa